sensor_id;sensor_type;location;lat;lon;timestamp;P1;durP1;ratioP1;P2;durP2;ratioP2
20527;SDS011;23612;50.894;10.700;2023-03-13T00:00:57;16.23;;;5.28;;
20527;SDS011;23612;50.894;10.700;2023-03-13T00:03:26;23.60;;;5.72;;
20527;SDS011;23612;50.894;10.700;2023-03-13T00:05:55;22.92;;;5.05;;
20527;SDS011;23612;50.894;10.700;2023-03-13T00:08:22;17.50;;;4.22;;
20527;SDS011;23612;50.894;10.700;2023-03-13T00:10:48;19.00;;;5.35;;
20527;SDS011;23612;50.894;10.700;2023-03-13T00:13:13;22.73;;;4.85;;
20527;SDS011;23612;50.894;10.700;2023-03-13T00:15:39;27.60;;;5.38;;
20527;SDS011;23612;50.894;10.700;2023-03-13T00:18:04;23.70;;;5.07;;
20527;SDS011;23612;50.894;10.700;2023-03-13T00:20:30;23.98;;;5.28;;
20527;SDS011;23612;50.894;10.700;2023-03-13T00:22:55;16.63;;;3.92;;
20527;SDS011;23612;50.894;10.700;2023-03-13T00:25:21;24.15;;;4.72;;
20527;SDS011;23612;50.894;10.700;2023-03-13T00:27:46;24.63;;;4.75;;
20527;SDS011;23612;50.894;10.700;2023-03-13T00:30:12;22.73;;;4.85;;
20527;SDS011;23612;50.894;10.700;2023-03-13T00:32:41;26.00;;;4.72;;
20527;SDS011;23612;50.894;10.700;2023-03-13T00:35:08;21.83;;;5.13;;
20527;SDS011;23612;50.894;10.700;2023-03-13T00:37:33;18.08;;;4.22;;
20527;SDS011;23612;50.894;10.700;2023-03-13T00:39:59;18.67;;;4.97;;
20527;SDS011;23612;50.894;10.700;2023-03-13T00:42:24;20.88;;;4.43;;
20527;SDS011;23612;50.894;10.700;2023-03-13T00:44:50;20.65;;;4.97;;
20527;SDS011;23612;50.894;10.700;2023-03-13T00:47:15;18.98;;;4.03;;
20527;SDS011;23612;50.894;10.700;2023-03-13T00:49:41;24.45;;;5.25;;
20527;SDS011;23612;50.894;10.700;2023-03-13T00:52:06;15.45;;;3.60;;
20527;SDS011;23612;50.894;10.700;2023-03-13T00:54:31;23.95;;;5.60;;
20527;SDS011;23612;50.894;10.700;2023-03-13T00:56:57;22.35;;;3.85;;
20527;SDS011;23612;50.894;10.700;2023-03-13T00:59:22;31.17;;;4.35;;
20527;SDS011;23612;50.894;10.700;2023-03-13T01:01:48;17.63;;;4.07;;
20527;SDS011;23612;50.894;10.700;2023-03-13T01:04:13;23.98;;;4.50;;
20527;SDS011;23612;50.894;10.700;2023-03-13T01:06:39;24.00;;;4.10;;
20527;SDS011;23612;50.894;10.700;2023-03-13T01:09:07;18.80;;;3.45;;
20527;SDS011;23612;50.894;10.700;2023-03-13T01:11:35;17.23;;;3.70;;
20527;SDS011;23612;50.894;10.700;2023-03-13T01:14:05;20.33;;;4.47;;
20527;SDS011;23612;50.894;10.700;2023-03-13T01:16:33;21.95;;;4.40;;
20527;SDS011;23612;50.894;10.700;2023-03-13T01:19:00;18.15;;;4.82;;
20527;SDS011;23612;50.894;10.700;2023-03-13T01:21:28;22.85;;;4.72;;
20527;SDS011;23612;50.894;10.700;2023-03-13T01:23:54;12.60;;;3.63;;
20527;SDS011;23612;50.894;10.700;2023-03-13T01:26:20;26.42;;;4.28;;
20527;SDS011;23612;50.894;10.700;2023-03-13T01:28:47;23.45;;;4.80;;
20527;SDS011;23612;50.894;10.700;2023-03-13T01:31:14;15.30;;;4.20;;
20527;SDS011;23612;50.894;10.700;2023-03-13T01:33:39;22.45;;;4.50;;
20527;SDS011;23612;50.894;10.700;2023-03-13T01:36:06;25.15;;;4.97;;
20527;SDS011;23612;50.894;10.700;2023-03-13T01:38:32;12.05;;;3.70;;
20527;SDS011;23612;50.894;10.700;2023-03-13T01:40:58;20.85;;;4.55;;
20527;SDS011;23612;50.894;10.700;2023-03-13T01:43:25;19.98;;;4.05;;
20527;SDS011;23612;50.894;10.700;2023-03-13T01:48:22;20.92;;;4.88;;
20527;SDS011;23612;50.894;10.700;2023-03-13T01:51:01;24.80;;;5.68;;
20527;SDS011;23612;50.894;10.700;2023-03-13T01:53:32;20.83;;;4.43;;
20527;SDS011;23612;50.894;10.700;2023-03-13T01:55:59;23.75;;;5.57;;
20527;SDS011;23612;50.894;10.700;2023-03-13T01:58:28;18.67;;;4.30;;
20527;SDS011;23612;50.894;10.700;2023-03-13T02:00:55;21.13;;;5.00;;
20527;SDS011;23612;50.894;10.700;2023-03-13T02:03:21;19.30;;;4.72;;
20527;SDS011;23612;50.894;10.700;2023-03-13T02:05:47;25.70;;;5.55;;
20527;SDS011;23612;50.894;10.700;2023-03-13T02:08:28;24.05;;;5.00;;
20527;SDS011;23612;50.894;10.700;2023-03-13T02:13:51;21.60;;;4.50;;
20527;SDS011;23612;50.894;10.700;2023-03-13T02:16:18;22.30;;;4.88;;
20527;SDS011;23612;50.894;10.700;2023-03-13T02:18:45;24.90;;;4.65;;
20527;SDS011;23612;50.894;10.700;2023-03-13T02:21:24;19.75;;;5.05;;
20527;SDS011;23612;50.894;10.700;2023-03-13T02:24:08;16.38;;;4.43;;
20527;SDS011;23612;50.894;10.700;2023-03-13T02:26:45;21.50;;;4.63;;
20527;SDS011;23612;50.894;10.700;2023-03-13T02:29:11;22.58;;;4.35;;
20527;SDS011;23612;50.894;10.700;2023-03-13T02:31:42;18.90;;;4.55;;
20527;SDS011;23612;50.894;10.700;2023-03-13T02:34:14;20.80;;;4.50;;
20527;SDS011;23612;50.894;10.700;2023-03-13T02:36:45;19.77;;;4.75;;
20527;SDS011;23612;50.894;10.700;2023-03-13T02:39:11;21.17;;;4.65;;
20527;SDS011;23612;50.894;10.700;2023-03-13T02:41:40;12.73;;;4.07;;
20527;SDS011;23612;50.894;10.700;2023-03-13T02:44:08;17.50;;;4.80;;
20527;SDS011;23612;50.894;10.700;2023-03-13T02:46:44;24.15;;;5.28;;
20527;SDS011;23612;50.894;10.700;2023-03-13T02:49:16;14.82;;;4.63;;
20527;SDS011;23612;50.894;10.700;2023-03-13T02:51:50;19.98;;;4.50;;
20527;SDS011;23612;50.894;10.700;2023-03-13T02:54:19;20.45;;;4.32;;
20527;SDS011;23612;50.894;10.700;2023-03-13T02:56:47;19.38;;;4.45;;
20527;SDS011;23612;50.894;10.700;2023-03-13T02:59:18;23.98;;;4.97;;
20527;SDS011;23612;50.894;10.700;2023-03-13T03:01:43;14.35;;;4.80;;
20527;SDS011;23612;50.894;10.700;2023-03-13T03:04:09;20.20;;;4.72;;
20527;SDS011;23612;50.894;10.700;2023-03-13T03:06:35;16.52;;;5.68;;
20527;SDS011;23612;50.894;10.700;2023-03-13T03:09:01;15.43;;;4.60;;
20527;SDS011;23612;50.894;10.700;2023-03-13T03:11:27;18.98;;;5.05;;
20527;SDS011;23612;50.894;10.700;2023-03-13T03:13:53;23.45;;;5.20;;
20527;SDS011;23612;50.894;10.700;2023-03-13T03:16:19;19.20;;;4.50;;
20527;SDS011;23612;50.894;10.700;2023-03-13T03:18:44;20.88;;;5.43;;
20527;SDS011;23612;50.894;10.700;2023-03-13T03:21:10;16.75;;;4.95;;
20527;SDS011;23612;50.894;10.700;2023-03-13T03:23:36;22.88;;;7.50;;
20527;SDS011;23612;50.894;10.700;2023-03-13T03:26:01;16.20;;;4.63;;
20527;SDS011;23612;50.894;10.700;2023-03-13T03:28:28;16.27;;;4.75;;
20527;SDS011;23612;50.894;10.700;2023-03-13T03:30:54;16.95;;;4.13;;
20527;SDS011;23612;50.894;10.700;2023-03-13T03:33:20;15.82;;;4.85;;
20527;SDS011;23612;50.894;10.700;2023-03-13T03:35:47;17.00;;;4.70;;
20527;SDS011;23612;50.894;10.700;2023-03-13T03:38:13;19.55;;;4.45;;
20527;SDS011;23612;50.894;10.700;2023-03-13T03:40:38;20.40;;;4.82;;
20527;SDS011;23612;50.894;10.700;2023-03-13T03:43:04;21.67;;;4.43;;
20527;SDS011;23612;50.894;10.700;2023-03-13T03:45:29;11.75;;;4.00;;
20527;SDS011;23612;50.894;10.700;2023-03-13T03:47:54;21.65;;;4.40;;
20527;SDS011;23612;50.894;10.700;2023-03-13T03:50:23;18.60;;;4.97;;
20527;SDS011;23612;50.894;10.700;2023-03-13T03:52:49;21.73;;;4.40;;
20527;SDS011;23612;50.894;10.700;2023-03-13T03:55:15;22.23;;;4.38;;
20527;SDS011;23612;50.894;10.700;2023-03-13T03:57:40;17.95;;;4.00;;
20527;SDS011;23612;50.894;10.700;2023-03-13T04:00:06;18.02;;;5.07;;
20527;SDS011;23612;50.894;10.700;2023-03-13T04:02:34;14.02;;;3.90;;
20527;SDS011;23612;50.894;10.700;2023-03-13T04:05:01;15.95;;;4.15;;
20527;SDS011;23612;50.894;10.700;2023-03-13T04:07:26;12.07;;;3.53;;
20527;SDS011;23612;50.894;10.700;2023-03-13T04:09:52;21.35;;;3.80;;
20527;SDS011;23612;50.894;10.700;2023-03-13T04:12:17;16.65;;;4.32;;
20527;SDS011;23612;50.894;10.700;2023-03-13T04:14:43;16.10;;;4.38;;
20527;SDS011;23612;50.894;10.700;2023-03-13T04:17:08;11.60;;;3.22;;
20527;SDS011;23612;50.894;10.700;2023-03-13T04:19:34;20.67;;;4.30;;
20527;SDS011;23612;50.894;10.700;2023-03-13T04:21:59;17.90;;;4.25;;
20527;SDS011;23612;50.894;10.700;2023-03-13T04:24:25;15.93;;;4.03;;
20527;SDS011;23612;50.894;10.700;2023-03-13T04:26:50;20.58;;;4.05;;
20527;SDS011;23612;50.894;10.700;2023-03-13T04:29:15;20.85;;;3.90;;
20527;SDS011;23612;50.894;10.700;2023-03-13T04:31:41;15.55;;;4.10;;
20527;SDS011;23612;50.894;10.700;2023-03-13T04:34:06;18.20;;;4.10;;
20527;SDS011;23612;50.894;10.700;2023-03-13T04:36:32;16.48;;;5.93;;
20527;SDS011;23612;50.894;10.700;2023-03-13T04:38:57;26.58;;;4.45;;
20527;SDS011;23612;50.894;10.700;2023-03-13T04:41:23;18.80;;;5.10;;
20527;SDS011;23612;50.894;10.700;2023-03-13T04:43:48;16.45;;;5.63;;
20527;SDS011;23612;50.894;10.700;2023-03-13T04:46:14;16.17;;;5.07;;
20527;SDS011;23612;50.894;10.700;2023-03-13T04:48:39;20.58;;;5.13;;
20527;SDS011;23612;50.894;10.700;2023-03-13T04:51:05;20.55;;;5.82;;
20527;SDS011;23612;50.894;10.700;2023-03-13T04:53:30;16.48;;;4.53;;
20527;SDS011;23612;50.894;10.700;2023-03-13T04:55:56;17.02;;;5.40;;
20527;SDS011;23612;50.894;10.700;2023-03-13T04:58:21;16.08;;;5.00;;
20527;SDS011;23612;50.894;10.700;2023-03-13T05:00:47;15.80;;;4.25;;
20527;SDS011;23612;50.894;10.700;2023-03-13T05:03:12;19.55;;;4.82;;
20527;SDS011;23612;50.894;10.700;2023-03-13T05:05:38;18.55;;;5.55;;
20527;SDS011;23612;50.894;10.700;2023-03-13T05:08:03;21.85;;;4.97;;
20527;SDS011;23612;50.894;10.700;2023-03-13T05:10:29;17.42;;;5.13;;
20527;SDS011;23612;50.894;10.700;2023-03-13T05:12:55;12.15;;;3.97;;
20527;SDS011;23612;50.894;10.700;2023-03-13T05:15:20;21.20;;;4.13;;
20527;SDS011;23612;50.894;10.700;2023-03-13T05:17:46;19.38;;;4.20;;
20527;SDS011;23612;50.894;10.700;2023-03-13T05:20:11;14.57;;;4.47;;
20527;SDS011;23612;50.894;10.700;2023-03-13T05:22:37;13.38;;;3.33;;
20527;SDS011;23612;50.894;10.700;2023-03-13T05:25:03;14.35;;;3.67;;
20527;SDS011;23612;50.894;10.700;2023-03-13T05:27:29;14.35;;;3.38;;
20527;SDS011;23612;50.894;10.700;2023-03-13T05:29:54;10.23;;;3.08;;
20527;SDS011;23612;50.894;10.700;2023-03-13T05:32:20;11.38;;;3.33;;
20527;SDS011;23612;50.894;10.700;2023-03-13T05:34:45;8.90;;;3.42;;
20527;SDS011;23612;50.894;10.700;2023-03-13T05:37:11;9.75;;;3.35;;
20527;SDS011;23612;50.894;10.700;2023-03-13T05:39:36;6.05;;;2.40;;
20527;SDS011;23612;50.894;10.700;2023-03-13T05:42:02;10.38;;;3.20;;
20527;SDS011;23612;50.894;10.700;2023-03-13T05:44:27;12.27;;;3.17;;
20527;SDS011;23612;50.894;10.700;2023-03-13T05:46:53;10.27;;;2.63;;
20527;SDS011;23612;50.894;10.700;2023-03-13T05:49:18;6.03;;;2.75;;
20527;SDS011;23612;50.894;10.700;2023-03-13T05:51:44;6.78;;;2.42;;
20527;SDS011;23612;50.894;10.700;2023-03-13T05:54:09;4.88;;;2.28;;
20527;SDS011;23612;50.894;10.700;2023-03-13T05:56:35;8.65;;;2.45;;
20527;SDS011;23612;50.894;10.700;2023-03-13T05:59:00;7.38;;;2.80;;
20527;SDS011;23612;50.894;10.700;2023-03-13T06:01:26;7.68;;;3.13;;
20527;SDS011;23612;50.894;10.700;2023-03-13T06:03:51;7.35;;;2.67;;
20527;SDS011;23612;50.894;10.700;2023-03-13T06:06:17;8.40;;;4.38;;
20527;SDS011;23612;50.894;10.700;2023-03-13T06:08:42;9.45;;;2.83;;
20527;SDS011;23612;50.894;10.700;2023-03-13T06:11:08;5.78;;;2.28;;
20527;SDS011;23612;50.894;10.700;2023-03-13T06:13:33;9.00;;;2.35;;
20527;SDS011;23612;50.894;10.700;2023-03-13T06:15:59;4.68;;;2.17;;
20527;SDS011;23612;50.894;10.700;2023-03-13T06:18:24;6.72;;;2.20;;
20527;SDS011;23612;50.894;10.700;2023-03-13T06:20:54;6.55;;;2.22;;
20527;SDS011;23612;50.894;10.700;2023-03-13T06:23:22;8.65;;;2.42;;
20527;SDS011;23612;50.894;10.700;2023-03-13T06:25:47;3.10;;;2.20;;
20527;SDS011;23612;50.894;10.700;2023-03-13T06:28:13;3.53;;;1.70;;
20527;SDS011;23612;50.894;10.700;2023-03-13T06:30:39;5.18;;;1.70;;
20527;SDS011;23612;50.894;10.700;2023-03-13T06:33:05;3.53;;;2.20;;
20527;SDS011;23612;50.894;10.700;2023-03-13T06:35:30;5.93;;;1.80;;
20527;SDS011;23612;50.894;10.700;2023-03-13T06:37:56;5.68;;;1.80;;
20527;SDS011;23612;50.894;10.700;2023-03-13T06:40:21;4.75;;;1.80;;
20527;SDS011;23612;50.894;10.700;2023-03-13T06:42:47;6.45;;;1.60;;
20527;SDS011;23612;50.894;10.700;2023-03-13T06:45:12;6.13;;;1.60;;
20527;SDS011;23612;50.894;10.700;2023-03-13T06:47:38;9.20;;;4.75;;
20527;SDS011;23612;50.894;10.700;2023-03-13T06:50:03;6.95;;;2.33;;
20527;SDS011;23612;50.894;10.700;2023-03-13T06:52:29;6.22;;;1.75;;
20527;SDS011;23612;50.894;10.700;2023-03-13T06:54:54;6.72;;;2.30;;
20527;SDS011;23612;50.894;10.700;2023-03-13T06:57:20;6.20;;;1.85;;
20527;SDS011;23612;50.894;10.700;2023-03-13T06:59:45;4.25;;;2.00;;
20527;SDS011;23612;50.894;10.700;2023-03-13T07:02:11;3.63;;;1.80;;
20527;SDS011;23612;50.894;10.700;2023-03-13T07:04:37;4.90;;;2.13;;
20527;SDS011;23612;50.894;10.700;2023-03-13T07:07:03;3.33;;;1.55;;
20527;SDS011;23612;50.894;10.700;2023-03-13T07:09:28;5.30;;;2.10;;
20527;SDS011;23612;50.894;10.700;2023-03-13T07:11:54;4.32;;;1.15;;
20527;SDS011;23612;50.894;10.700;2023-03-13T07:14:21;5.60;;;1.83;;
20527;SDS011;23612;50.894;10.700;2023-03-13T07:16:47;2.20;;;1.00;;
20527;SDS011;23612;50.894;10.700;2023-03-13T07:19:13;3.97;;;1.55;;
20527;SDS011;23612;50.894;10.700;2023-03-13T07:21:39;2.42;;;1.15;;
20527;SDS011;23612;50.894;10.700;2023-03-13T07:24:05;1.35;;;1.23;;
20527;SDS011;23612;50.894;10.700;2023-03-13T07:26:30;2.85;;;1.67;;
20527;SDS011;23612;50.894;10.700;2023-03-13T07:28:56;5.88;;;4.47;;
20527;SDS011;23612;50.894;10.700;2023-03-13T07:31:22;3.45;;;1.42;;
20527;SDS011;23612;50.894;10.700;2023-03-13T07:33:50;4.05;;;1.80;;
20527;SDS011;23612;50.894;10.700;2023-03-13T07:36:20;3.97;;;1.30;;
20527;SDS011;23612;50.894;10.700;2023-03-13T07:38:47;4.13;;;1.63;;
20527;SDS011;23612;50.894;10.700;2023-03-13T07:41:13;4.43;;;1.70;;
20527;SDS011;23612;50.894;10.700;2023-03-13T07:43:38;3.00;;;1.60;;
20527;SDS011;23612;50.894;10.700;2023-03-13T07:46:05;5.15;;;2.00;;
20527;SDS011;23612;50.894;10.700;2023-03-13T07:48:38;12.35;;;8.18;;
20527;SDS011;23612;50.894;10.700;2023-03-13T07:51:06;13.38;;;8.60;;
20527;SDS011;23612;50.894;10.700;2023-03-13T07:53:39;10.05;;;4.63;;
20527;SDS011;23612;50.894;10.700;2023-03-13T07:56:05;3.10;;;1.83;;
20527;SDS011;23612;50.894;10.700;2023-03-13T07:58:34;3.45;;;2.08;;
20527;SDS011;23612;50.894;10.700;2023-03-13T08:01:09;4.68;;;2.25;;
20527;SDS011;23612;50.894;10.700;2023-03-13T08:03:36;3.33;;;2.05;;
20527;SDS011;23612;50.894;10.700;2023-03-13T08:06:03;3.35;;;1.50;;
20527;SDS011;23612;50.894;10.700;2023-03-13T08:08:39;3.95;;;1.70;;
20527;SDS011;23612;50.894;10.700;2023-03-13T08:11:05;2.47;;;1.42;;
20527;SDS011;23612;50.894;10.700;2023-03-13T08:13:33;4.00;;;2.28;;
20527;SDS011;23612;50.894;10.700;2023-03-13T08:16:04;1.40;;;1.30;;
20527;SDS011;23612;50.894;10.700;2023-03-13T08:18:30;2.10;;;1.40;;
20527;SDS011;23612;50.894;10.700;2023-03-13T08:21:00;1.17;;;0.98;;
20527;SDS011;23612;50.894;10.700;2023-03-13T08:23:26;1.00;;;0.90;;
20527;SDS011;23612;50.894;10.700;2023-03-13T08:25:52;0.98;;;0.98;;
20527;SDS011;23612;50.894;10.700;2023-03-13T08:28:18;0.93;;;0.93;;
20527;SDS011;23612;50.894;10.700;2023-03-13T08:30:43;1.80;;;1.20;;
20527;SDS011;23612;50.894;10.700;2023-03-13T08:33:08;0.82;;;0.80;;
20527;SDS011;23612;50.894;10.700;2023-03-13T08:35:34;1.20;;;1.10;;
20527;SDS011;23612;50.894;10.700;2023-03-13T08:38:00;3.20;;;1.00;;
20527;SDS011;23612;50.894;10.700;2023-03-13T08:40:26;2.45;;;1.08;;
20527;SDS011;23612;50.894;10.700;2023-03-13T08:42:52;1.20;;;0.80;;
20527;SDS011;23612;50.894;10.700;2023-03-13T08:45:18;2.40;;;1.50;;
20527;SDS011;23612;50.894;10.700;2023-03-13T08:47:43;1.95;;;0.82;;
20527;SDS011;23612;50.894;10.700;2023-03-13T08:50:09;7.10;;;4.03;;
20527;SDS011;23612;50.894;10.700;2023-03-13T08:52:35;1.25;;;1.02;;
20527;SDS011;23612;50.894;10.700;2023-03-13T08:55:01;23.70;;;10.40;;
20527;SDS011;23612;50.894;10.700;2023-03-13T08:57:26;10.45;;;5.43;;
20527;SDS011;23612;50.894;10.700;2023-03-13T08:59:51;0.63;;;0.60;;
20527;SDS011;23612;50.894;10.700;2023-03-13T09:02:17;3.88;;;1.15;;
20527;SDS011;23612;50.894;10.700;2023-03-13T09:04:44;0.98;;;0.98;;
20527;SDS011;23612;50.894;10.700;2023-03-13T09:07:11;2.75;;;1.83;;
20527;SDS011;23612;50.894;10.700;2023-03-13T09:09:36;2.88;;;1.08;;
20527;SDS011;23612;50.894;10.700;2023-03-13T09:12:02;3.38;;;2.15;;
20527;SDS011;23612;50.894;10.700;2023-03-13T09:14:27;3.60;;;2.17;;
20527;SDS011;23612;50.894;10.700;2023-03-13T09:16:54;1.50;;;0.80;;
20527;SDS011;23612;50.894;10.700;2023-03-13T09:19:20;9.95;;;5.47;;
20527;SDS011;23612;50.894;10.700;2023-03-13T09:21:45;3.58;;;1.13;;
20527;SDS011;23612;50.894;10.700;2023-03-13T09:24:13;14.75;;;9.18;;
20527;SDS011;23612;50.894;10.700;2023-03-13T09:26:39;1.33;;;1.23;;
20527;SDS011;23612;50.894;10.700;2023-03-13T09:29:04;2.22;;;1.90;;
20527;SDS011;23612;50.894;10.700;2023-03-13T09:31:30;1.63;;;1.52;;
20527;SDS011;23612;50.894;10.700;2023-03-13T09:33:57;1.75;;;1.58;;
20527;SDS011;23612;50.894;10.700;2023-03-13T09:36:23;1.45;;;1.40;;
20527;SDS011;23612;50.894;10.700;2023-03-13T09:38:51;4.20;;;2.05;;
20527;SDS011;23612;50.894;10.700;2023-03-13T09:47:08;3.92;;;2.47;;
20527;SDS011;23612;50.894;10.700;2023-03-13T09:49:37;5.18;;;2.95;;
20527;SDS011;23612;50.894;10.700;2023-03-13T09:52:11;3.03;;;1.88;;
20527;SDS011;23612;50.894;10.700;2023-03-13T09:54:55;3.17;;;1.70;;
20527;SDS011;23612;50.894;10.700;2023-03-13T10:00:00;2.55;;;1.70;;
20527;SDS011;23612;50.894;10.700;2023-03-13T10:02:36;1.70;;;1.60;;
20527;SDS011;23612;50.894;10.700;2023-03-13T10:05:04;3.17;;;2.50;;
20527;SDS011;23612;50.894;10.700;2023-03-13T10:07:30;2.58;;;1.90;;
20527;SDS011;23612;50.894;10.700;2023-03-13T10:09:57;5.30;;;2.47;;
20527;SDS011;23612;50.894;10.700;2023-03-13T10:12:28;2.88;;;2.53;;
20527;SDS011;23612;50.894;10.700;2023-03-13T10:17:54;10.18;;;6.43;;
20527;SDS011;23612;50.894;10.700;2023-03-13T10:22:50;3.42;;;2.58;;
20527;SDS011;23612;50.894;10.700;2023-03-13T10:25:29;7.40;;;4.22;;
20527;SDS011;23612;50.894;10.700;2023-03-13T10:28:00;3.17;;;1.92;;
20527;SDS011;23612;50.894;10.700;2023-03-13T10:30:27;4.18;;;2.67;;
20527;SDS011;23612;50.894;10.700;2023-03-13T10:33:15;4.07;;;2.10;;
20527;SDS011;23612;50.894;10.700;2023-03-13T10:35:49;2.85;;;1.50;;
20527;SDS011;23612;50.894;10.700;2023-03-13T10:38:25;3.60;;;1.70;;
20527;SDS011;23612;50.894;10.700;2023-03-13T10:40:57;2.33;;;1.48;;
20527;SDS011;23612;50.894;10.700;2023-03-13T10:43:33;3.25;;;1.52;;
20527;SDS011;23612;50.894;10.700;2023-03-13T10:45:58;3.22;;;1.85;;
20527;SDS011;23612;50.894;10.700;2023-03-13T10:48:25;3.03;;;1.95;;
20527;SDS011;23612;50.894;10.700;2023-03-13T10:50:55;4.53;;;2.35;;
20527;SDS011;23612;50.894;10.700;2023-03-13T10:55:49;3.80;;;1.83;;
20527;SDS011;23612;50.894;10.700;2023-03-13T10:58:26;2.88;;;2.47;;
20527;SDS011;23612;50.894;10.700;2023-03-13T11:01:08;2.35;;;1.70;;
20527;SDS011;23612;50.894;10.700;2023-03-13T11:03:34;1.65;;;1.50;;
20527;SDS011;23612;50.894;10.700;2023-03-13T11:06:00;1.65;;;1.42;;
20527;SDS011;23612;50.894;10.700;2023-03-13T11:08:28;2.28;;;1.25;;
20527;SDS011;23612;50.894;10.700;2023-03-13T11:11:03;1.17;;;1.08;;
20527;SDS011;23612;50.894;10.700;2023-03-13T11:13:32;2.15;;;1.58;;
20527;SDS011;23612;50.894;10.700;2023-03-13T11:16:19;2.25;;;1.50;;
20527;SDS011;23612;50.894;10.700;2023-03-13T11:24:16;2.40;;;1.90;;
20527;SDS011;23612;50.894;10.700;2023-03-13T11:26:59;1.60;;;1.50;;
20527;SDS011;23612;50.894;10.700;2023-03-13T11:32:24;2.85;;;1.80;;
20527;SDS011;23612;50.894;10.700;2023-03-13T11:34:55;3.28;;;1.73;;
20527;SDS011;23612;50.894;10.700;2023-03-13T11:37:25;2.85;;;1.50;;
20527;SDS011;23612;50.894;10.700;2023-03-13T11:48:20;3.67;;;1.67;;
20527;SDS011;23612;50.894;10.700;2023-03-13T11:51:24;2.97;;;1.83;;
20527;SDS011;23612;50.894;10.700;2023-03-13T11:56:51;5.22;;;2.20;;
20527;SDS011;23612;50.894;10.700;2023-03-13T12:02:39;2.38;;;2.13;;
20527;SDS011;23612;50.894;10.700;2023-03-13T12:05:16;2.90;;;1.60;;
20527;SDS011;23612;50.894;10.700;2023-03-13T12:07:51;3.85;;;2.25;;
20527;SDS011;23612;50.894;10.700;2023-03-13T12:10:34;2.25;;;1.92;;
20527;SDS011;23612;50.894;10.700;2023-03-13T12:13:15;4.97;;;1.77;;
20527;SDS011;23612;50.894;10.700;2023-03-13T12:15:46;1.80;;;1.45;;
20527;SDS011;23612;50.894;10.700;2023-03-13T12:18:22;2.08;;;1.88;;
20527;SDS011;23612;50.894;10.700;2023-03-13T12:21:02;2.38;;;1.63;;
20527;SDS011;23612;50.894;10.700;2023-03-13T12:26:14;1.52;;;1.42;;
20527;SDS011;23612;50.894;10.700;2023-03-13T12:28:44;2.35;;;1.80;;
20527;SDS011;23612;50.894;10.700;2023-03-13T12:31:37;5.60;;;1.65;;
20527;SDS011;23612;50.894;10.700;2023-03-13T12:34:13;3.47;;;2.00;;
20527;SDS011;23612;50.894;10.700;2023-03-13T12:39:41;2.88;;;1.70;;
20527;SDS011;23612;50.894;10.700;2023-03-13T12:44:54;1.95;;;1.80;;
20527;SDS011;23612;50.894;10.700;2023-03-13T12:47:27;2.55;;;1.75;;
20527;SDS011;23612;50.894;10.700;2023-03-13T12:50:21;3.03;;;2.30;;
20527;SDS011;23612;50.894;10.700;2023-03-13T12:58:29;4.20;;;2.20;;
20527;SDS011;23612;50.894;10.700;2023-03-13T13:01:05;2.47;;;1.63;;
20527;SDS011;23612;50.894;10.700;2023-03-13T13:03:39;16.67;;;2.30;;
20527;SDS011;23612;50.894;10.700;2023-03-13T13:06:49;2.65;;;1.63;;
20527;SDS011;23612;50.894;10.700;2023-03-13T13:09:20;3.42;;;1.60;;
20527;SDS011;23612;50.894;10.700;2023-03-13T13:11:47;7.70;;;2.53;;
20527;SDS011;23612;50.894;10.700;2023-03-13T13:16:42;4.93;;;2.00;;
20527;SDS011;23612;50.894;10.700;2023-03-13T13:22:43;4.32;;;1.80;;
20527;SDS011;23612;50.894;10.700;2023-03-13T13:24:52;4.47;;;2.45;;
20527;SDS011;23612;50.894;10.700;2023-03-13T13:27:27;6.40;;;3.95;;
20527;SDS011;23612;50.894;10.700;2023-03-13T13:30:28;3.65;;;2.67;;
20527;SDS011;23612;50.894;10.700;2023-03-13T13:33:35;10.20;;;2.33;;
20527;SDS011;23612;50.894;10.700;2023-03-13T13:35:41;4.15;;;1.92;;
20527;SDS011;23612;50.894;10.700;2023-03-13T13:40:57;3.25;;;1.73;;
20527;SDS011;23612;50.894;10.700;2023-03-13T13:43:23;2.50;;;1.80;;
20527;SDS011;23612;50.894;10.700;2023-03-13T13:46:00;2.55;;;1.50;;
20527;SDS011;23612;50.894;10.700;2023-03-13T13:48:38;5.00;;;1.70;;
20527;SDS011;23612;50.894;10.700;2023-03-13T13:53:45;2.05;;;1.60;;
20527;SDS011;23612;50.894;10.700;2023-03-13T13:58:54;2.53;;;1.58;;
20527;SDS011;23612;50.894;10.700;2023-03-13T14:01:46;2.08;;;1.27;;
20527;SDS011;23612;50.894;10.700;2023-03-13T14:04:15;3.85;;;1.38;;
20527;SDS011;23612;50.894;10.700;2023-03-13T14:06:41;4.72;;;2.30;;
20527;SDS011;23612;50.894;10.700;2023-03-13T14:11:59;2.13;;;1.95;;
20527;SDS011;23612;50.894;10.700;2023-03-13T14:14:25;5.35;;;4.57;;
20527;SDS011;23612;50.894;10.700;2023-03-13T14:16:52;16.55;;;9.65;;
20527;SDS011;23612;50.894;10.700;2023-03-13T14:19:25;6.82;;;4.72;;
20527;SDS011;23612;50.894;10.700;2023-03-13T14:22:07;4.13;;;3.42;;
20527;SDS011;23612;50.894;10.700;2023-03-13T14:24:35;6.68;;;3.30;;
20527;SDS011;23612;50.894;10.700;2023-03-13T14:27:01;4.80;;;3.45;;
20527;SDS011;23612;50.894;10.700;2023-03-13T14:29:38;2.58;;;2.10;;
20527;SDS011;23612;50.894;10.700;2023-03-13T14:32:04;3.17;;;2.25;;
20527;SDS011;23612;50.894;10.700;2023-03-13T14:34:30;2.67;;;2.10;;
20527;SDS011;23612;50.894;10.700;2023-03-13T14:36:59;6.03;;;5.45;;
20527;SDS011;23612;50.894;10.700;2023-03-13T14:42:01;2.67;;;2.47;;
20527;SDS011;23612;50.894;10.700;2023-03-13T14:44:30;3.50;;;2.50;;
20527;SDS011;23612;50.894;10.700;2023-03-13T14:47:03;4.18;;;2.55;;
20527;SDS011;23612;50.894;10.700;2023-03-13T14:49:38;5.20;;;2.85;;
20527;SDS011;23612;50.894;10.700;2023-03-13T14:52:05;4.47;;;2.53;;
20527;SDS011;23612;50.894;10.700;2023-03-13T14:54:57;4.65;;;2.25;;
20527;SDS011;23612;50.894;10.700;2023-03-13T14:57:28;3.53;;;2.55;;
20527;SDS011;23612;50.894;10.700;2023-03-13T14:59:55;4.53;;;2.90;;
20527;SDS011;23612;50.894;10.700;2023-03-13T15:03:10;4.80;;;3.10;;
20527;SDS011;23612;50.894;10.700;2023-03-13T15:05:49;4.93;;;2.75;;
20527;SDS011;23612;50.894;10.700;2023-03-13T15:08:27;4.93;;;3.92;;
20527;SDS011;23612;50.894;10.700;2023-03-13T15:10:52;4.53;;;3.53;;
20527;SDS011;23612;50.894;10.700;2023-03-13T15:15:44;4.03;;;2.47;;
20527;SDS011;23612;50.894;10.700;2023-03-13T15:18:16;8.80;;;3.45;;
20527;SDS011;23612;50.894;10.700;2023-03-13T15:20:50;4.20;;;3.05;;
20527;SDS011;23612;50.894;10.700;2023-03-13T15:23:17;4.25;;;3.00;;
20527;SDS011;23612;50.894;10.700;2023-03-13T15:25:44;7.10;;;5.38;;
20527;SDS011;23612;50.894;10.700;2023-03-13T15:28:17;5.70;;;3.20;;
20527;SDS011;23612;50.894;10.700;2023-03-13T15:30:44;9.23;;;3.15;;
20527;SDS011;23612;50.894;10.700;2023-03-13T15:33:13;4.82;;;3.15;;
20527;SDS011;23612;50.894;10.700;2023-03-13T15:35:40;3.80;;;2.90;;
20527;SDS011;23612;50.894;10.700;2023-03-13T15:38:10;8.15;;;4.97;;
20527;SDS011;23612;50.894;10.700;2023-03-13T15:40:38;8.27;;;5.10;;
20527;SDS011;23612;50.894;10.700;2023-03-13T15:43:04;12.18;;;6.13;;
20527;SDS011;23612;50.894;10.700;2023-03-13T15:45:30;8.18;;;4.30;;
20527;SDS011;23612;50.894;10.700;2023-03-13T15:47:56;11.18;;;5.55;;
20527;SDS011;23612;50.894;10.700;2023-03-13T15:50:22;10.30;;;4.30;;
20527;SDS011;23612;50.894;10.700;2023-03-13T15:52:53;8.05;;;3.60;;
20527;SDS011;23612;50.894;10.700;2023-03-13T15:55:19;7.25;;;3.30;;
20527;SDS011;23612;50.894;10.700;2023-03-13T15:57:45;7.22;;;3.58;;